Time;durP1;ratioP1;P1;durP2;ratioP2;P2;SDS_P1;SDS_P2;PMS_P1;PMS_P2;Temp;Humidity;BMP_temperature;BMP_pressure;BME280_temperature;BME280_humidity;BME280_pressure;Samples;Min_cycle;Max_cycle;Signal;HPM_P1;HPM_P2
2022/03/31 00:00:33;;;;;;;44.10;20.13;;;;;;;4.20;74.31;96888.69;5089913;28;20024;-69
2022/03/31 00:03:00;;;;;;;35.58;21.70;;;;;;;4.13;74.30;96880.09;5088158;28;20481;-69
2022/03/31 00:05:27;;;;;;;32.35;18.33;;;;;;;4.07;75.00;96886.72;5089210;28;20020;-70
2022/03/31 00:07:54;;;;;;;28.45;16.30;;;;;;;4.01;74.37;96873.22;5088720;28;20034;-69
2022/03/31 00:10:27;;;;;;;29.85;18.63;;;;;;;3.99;74.28;96874.59;5089557;28;20405;-69
2022/03/31 00:12:54;;;;;;;24.02;15.75;;;;;;;4.02;74.68;96882.16;5090013;28;20099;-69
2022/03/31 00:15:20;;;;;;;12.85;9.38;;;;;;;4.01;74.55;96877.81;5089560;28;20019;-69
2022/03/31 00:17:46;;;;;;;19.92;12.30;;;;;;;3.96;75.27;96881.41;5089766;28;20028;-69
2022/03/31 00:20:11;;;;;;;17.30;10.18;;;;;;;3.96;75.12;96886.84;5088900;28;20020;-70
2022/03/31 00:22:39;;;;;;;21.55;12.13;;;;;;;4.01;74.93;96885.94;5089958;28;20469;-69
2022/03/31 00:25:07;;;;;;;19.75;11.85;;;;;;;3.99;75.21;96891.69;5089578;28;20020;-69
2022/03/31 00:27:34;;;;;;;18.92;11.73;;;;;;;3.94;75.00;96882.78;5089837;28;20039;-69
2022/03/31 00:29:59;;;;;;;23.58;13.32;;;;;;;3.87;75.64;96881.25;5089821;28;20542;-69
2022/03/31 00:32:25;;;;;;;26.48;13.63;;;;;;;3.88;75.17;96879.34;5089484;28;20020;-69
2022/03/31 00:34:50;;;;;;;19.08;11.25;;;;;;;3.86;75.91;96879.66;5089301;28;20016;-69
2022/03/31 00:37:15;;;;;;;15.95;10.40;;;;;;;3.82;75.53;96889.47;5089156;28;20055;-70
2022/03/31 00:39:42;;;;;;;14.63;9.48;;;;;;;3.83;74.75;96885.66;5089817;28;20077;-69
2022/03/31 00:42:08;;;;;;;15.88;10.20;;;;;;;3.86;75.55;96890.50;5089563;28;20038;-70
2022/03/31 00:44:34;;;;;;;16.70;10.98;;;;;;;3.85;74.83;96891.59;5085567;28;20042;-69
2022/03/31 00:46:59;;;;;;;15.35;10.35;;;;;;;3.83;74.65;96890.25;5088881;28;20466;-69
2022/03/31 00:49:25;;;;;;;15.93;10.85;;;;;;;3.76;75.09;96881.66;5089254;28;20069;-69
2022/03/31 00:51:53;;;;;;;17.15;10.82;;;;;;;3.70;74.76;96884.44;5089463;28;20718;-69
2022/03/31 00:54:20;;;;;;;18.83;12.40;;;;;;;3.64;74.87;96882.09;5088987;28;20024;-69
2022/03/31 00:56:49;;;;;;;14.73;10.50;;;;;;;3.64;75.24;96879.38;5089013;28;20095;-69
2022/03/31 00:59:16;;;;;;;16.20;11.30;;;;;;;3.58;74.89;96878.66;5088864;28;20113;-69
2022/03/31 01:01:43;;;;;;;16.58;11.85;;;;;;;3.53;75.19;96881.41;5086947;28;20016;-70
2022/03/31 01:04:09;;;;;;;21.65;13.25;;;;;;;3.47;74.83;96880.66;5088640;28;20024;-68
2022/03/31 01:06:35;;;;;;;18.15;13.13;;;;;;;3.44;74.85;96889.38;5088753;28;20085;-68
2022/03/31 01:09:05;;;;;;;22.80;16.63;;;;;;;3.44;75.16;96878.53;5085048;28;20040;-68
2022/03/31 01:11:31;;;;;;;21.50;16.17;;;;;;;3.48;75.60;96876.03;5086696;28;20024;-69
2022/03/31 01:13:56;;;;;;;22.80;16.58;;;;;;;3.51;75.22;96880.91;5088567;28;20397;-69
2022/03/31 01:16:22;;;;;;;20.30;15.00;;;;;;;3.50;75.02;96880.06;5087317;28;20034;-69
2022/03/31 01:18:48;;;;;;;27.45;20.05;;;;;;;3.48;75.13;96882.25;5088327;28;20020;-69
2022/03/31 01:21:14;;;;;;;23.75;17.52;;;;;;;3.46;74.70;96881.78;5088419;28;20036;-69
2022/03/31 01:23:40;;;;;;;19.88;15.27;;;;;;;3.46;75.11;96884.47;5089366;28;20020;-69
2022/03/31 01:26:09;;;;;;;20.05;15.05;;;;;;;3.44;74.53;96894.81;5088383;28;20097;-69
2022/03/31 01:28:39;;;;;;;21.07;15.47;;;;;;;3.39;74.52;96892.16;5088949;28;20024;-69
2022/03/31 01:31:04;;;;;;;21.67;15.60;;;;;;;3.34;75.13;96895.69;5088273;28;20028;-69
2022/03/31 01:33:30;;;;;;;21.98;16.50;;;;;;;3.31;75.28;96893.56;5088449;28;20082;-69
2022/03/31 01:35:56;;;;;;;20.63;16.10;;;;;;;3.32;75.02;96884.34;5088267;28;20493;-69
2022/03/31 01:38:22;;;;;;;18.52;14.75;;;;;;;3.34;75.61;96887.56;5087589;28;20052;-69
2022/03/31 01:40:47;;;;;;;18.77;14.35;;;;;;;3.38;75.32;96894.03;5088478;28;20016;-69
2022/03/31 01:43:13;;;;;;;17.58;13.73;;;;;;;3.40;75.21;96885.63;5087710;28;20051;-69
2022/03/31 01:45:39;;;;;;;18.10;15.40;;;;;;;3.38;75.60;96888.63;5087560;28;20028;-69
2022/03/31 01:48:05;;;;;;;17.65;14.50;;;;;;;3.33;75.59;96885.16;5088921;28;20034;-70
2022/03/31 01:50:30;;;;;;;16.45;12.82;;;;;;;3.33;75.16;96890.59;5088820;28;20581;-69
2022/03/31 01:52:56;;;;;;;17.38;12.68;;;;;;;3.38;75.65;96896.75;5089001;28;20470;-69
2022/03/31 01:55:21;;;;;;;18.25;14.65;;;;;;;3.43;75.04;96899.41;5088781;28;20024;-70
2022/03/31 01:57:47;;;;;;;17.45;13.10;;;;;;;3.43;75.10;96901.31;5089197;28;20028;-69
2022/03/31 02:00:13;;;;;;;15.15;12.43;;;;;;;3.42;74.77;96897.78;5092485;28;20511;-69
2022/03/31 02:02:39;;;;;;;17.23;13.48;;;;;;;3.44;76.00;96897.50;5092070;28;20032;-69
2022/03/31 02:05:07;;;;;;;15.75;12.90;;;;;;;3.40;74.65;96901.88;5092400;28;20024;-70
2022/03/31 02:07:32;;;;;;;16.92;13.70;;;;;;;3.34;75.09;96908.47;5092060;28;20032;-68
2022/03/31 02:09:59;;;;;;;14.30;11.70;;;;;;;3.33;74.92;96904.91;5092655;28;20529;-69
2022/03/31 02:12:24;;;;;;;17.25;12.80;;;;;;;3.30;75.30;96919.03;5088236;28;20031;-68
2022/03/31 02:14:50;;;;;;;14.40;11.82;;;;;;;3.26;76.21;96916.13;5092205;28;20461;-68
2022/03/31 02:17:16;;;;;;;14.40;12.35;;;;;;;3.22;75.98;96919.69;5091619;28;20115;-68
2022/03/31 02:19:42;;;;;;;14.60;11.77;;;;;;;3.17;75.51;96920.53;5092153;28;20032;-68
2022/03/31 02:22:08;;;;;;;14.20;12.05;;;;;;;3.16;75.27;96913.50;5092048;28;20430;-71
2022/03/31 02:24:36;;;;;;;14.23;11.38;;;;;;;3.18;75.30;96911.31;5092363;28;20066;-70
2022/03/31 02:27:03;;;;;;;15.65;11.23;;;;;;;3.15;75.63;96911.09;5091922;28;20149;-71
2022/03/31 02:29:28;;;;;;;13.05;10.43;;;;;;;3.14;75.25;96912.97;5092297;28;20016;-71
2022/03/31 02:31:54;;;;;;;12.93;10.63;;;;;;;3.11;75.45;96910.84;5091921;28;20023;-70
2022/03/31 02:34:19;;;;;;;11.88;9.98;;;;;;;3.17;76.00;96914.31;5091717;28;20035;-71
2022/03/31 02:36:46;;;;;;;12.55;10.50;;;;;;;3.17;75.56;96915.13;5091640;28;20284;-70
2022/03/31 02:39:12;;;;;;;13.43;10.88;;;;;;;3.16;76.99;96912.69;5090591;28;20073;-69
2022/03/31 02:41:38;;;;;;;11.35;9.38;;;;;;;3.12;76.22;96902.44;5091343;28;20099;-69
2022/03/31 02:44:05;;;;;;;13.13;10.55;;;;;;;3.09;75.88;96903.00;5089047;28;20028;-70
2022/03/31 02:46:31;;;;;;;12.73;11.05;;;;;;;3.01;75.57;96903.63;5090410;28;20031;-69
2022/03/31 02:48:58;;;;;;;13.48;10.80;;;;;;;2.95;75.40;96905.56;5089666;28;20077;-69
2022/03/31 02:51:25;;;;;;;12.88;10.15;;;;;;;2.94;76.19;96911.25;5090365;28;20016;-69
2022/03/31 02:56:35;;;;;;;11.65;9.30;;;;;;;3.01;76.36;96894.69;5090665;28;20385;-69
2022/03/31 02:59:03;;;;;;;12.07;10.05;;;;;;;2.97;76.29;96903.41;5092447;28;20028;-69
2022/03/31 03:01:28;;;;;;;15.75;11.95;;;;;;;2.95;75.83;96905.56;5092694;28;20024;-68
2022/03/31 03:03:55;;;;;;;18.17;12.13;;;;;;;2.93;76.51;96907.75;5092275;28;20435;-69
2022/03/31 03:06:21;;;;;;;15.05;11.10;;;;;;;2.92;76.13;96910.75;5092759;28;20028;-69
2022/03/31 03:08:46;;;;;;;15.75;10.70;;;;;;;2.88;76.12;96913.22;5092570;28;20162;-70
2022/03/31 03:11:12;;;;;;;17.70;12.63;;;;;;;2.86;75.89;96904.56;5093622;28;20065;-69
2022/03/31 03:13:38;;;;;;;15.77;11.88;;;;;;;2.85;76.02;96907.56;5092197;28;20016;-70
2022/03/31 03:16:08;;;;;;;17.02;11.20;;;;;;;2.80;75.70;96911.94;5093240;28;20059;-70
2022/03/31 03:18:37;;;;;;;15.23;11.40;;;;;;;2.76;75.63;96910.06;5093417;28;20469;-69
2022/03/31 03:21:04;;;;;;;15.02;11.23;;;;;;;2.73;76.29;96910.63;5093259;28;20058;-70
2022/03/31 03:23:31;;;;;;;16.90;11.60;;;;;;;2.73;76.54;96906.03;5092181;28;20137;-70
2022/03/31 03:25:56;;;;;;;17.45;11.90;;;;;;;2.72;76.12;96904.41;5093055;28;20127;-71
2022/03/31 03:28:22;;;;;;;18.70;12.77;;;;;;;2.74;76.11;96907.66;5093450;28;20111;-70
2022/03/31 03:30:49;;;;;;;18.50;13.32;;;;;;;2.76;76.35;96899.25;5093424;28;20116;-70
2022/03/31 03:33:14;;;;;;;15.30;10.90;;;;;;;2.78;76.03;96908.72;5092824;28;20723;-70
2022/03/31 03:35:40;;;;;;;13.68;10.82;;;;;;;2.80;75.97;96906.53;5092777;28;20055;-69
2022/03/31 03:38:07;;;;;;;15.00;10.73;;;;;;;2.78;76.00;96910.59;5092734;28;20046;-70
2022/03/31 03:40:33;;;;;;;17.60;12.32;;;;;;;2.71;76.72;96907.41;5092722;28;20055;-69
2022/03/31 03:42:58;;;;;;;15.50;11.35;;;;;;;2.65;76.04;96915.56;5092833;28;20067;-70
2022/03/31 03:45:23;;;;;;;14.73;11.45;;;;;;;2.62;76.09;96921.56;5092799;28;20031;-70
2022/03/31 03:47:49;;;;;;;17.63;11.77;;;;;;;2.56;76.61;96919.16;5093603;28;20042;-70
2022/03/31 03:50:15;;;;;;;22.42;13.35;;;;;;;2.53;76.90;96925.94;5092587;28;20035;-70
2022/03/31 03:52:41;;;;;;;19.45;12.82;;;;;;;2.56;77.26;96925.38;5092431;28;20063;-70
2022/03/31 03:55:07;;;;;;;13.45;9.90;;;;;;;2.55;77.03;96926.47;5092020;28;20115;-69
2022/03/31 03:57:32;;;;;;;17.77;11.93;;;;;;;2.54;76.21;96916.75;5092220;28;20059;-70
2022/03/31 03:59:58;;;;;;;13.07;10.32;;;;;;;2.54;76.85;96916.75;5092514;28;20031;-69
2022/03/31 04:02:23;;;;;;;11.20;9.48;;;;;;;2.55;76.62;96921.06;5092440;28;20035;-69
2022/03/31 04:04:49;;;;;;;13.32;11.82;;;;;;;2.58;76.54;96920.50;5092339;28;20028;-69
2022/03/31 04:07:14;;;;;;;15.27;12.15;;;;;;;2.57;76.84;96916.19;5092080;28;20032;-69
2022/03/31 04:09:40;;;;;;;19.90;14.15;;;;;;;2.57;76.87;96927.00;5092256;28;20031;-69
2022/03/31 04:12:06;;;;;;;13.95;11.23;;;;;;;2.60;77.26;96917.50;5092482;28;20061;-69
2022/03/31 04:14:31;;;;;;;14.07;12.00;;;;;;;2.61;76.54;96919.94;5092442;28;20035;-70
2022/03/31 04:16:56;;;;;;;14.93;11.63;;;;;;;2.63;76.45;96925.06;5091869;28;20386;-69
2022/03/31 04:19:22;;;;;;;13.70;11.07;;;;;;;2.64;77.18;96918.56;5091854;28;20035;-69
2022/03/31 04:21:49;;;;;;;18.67;13.85;;;;;;;2.62;77.16;96912.63;5090395;28;20432;-69
2022/03/31 04:24:14;;;;;;;19.05;14.38;;;;;;;2.61;76.99;96914.53;5091451;28;20036;-70
2022/03/31 04:26:40;;;;;;;21.00;15.43;;;;;;;2.63;77.09;96906.94;5091728;28;20454;-70
2022/03/31 04:29:08;;;;;;;18.23;13.35;;;;;;;2.61;77.43;96900.16;5091602;28;20043;-70
2022/03/31 04:31:39;;;;;;;19.67;14.80;;;;;;;2.57;77.17;96908.06;5091798;28;20442;-70
2022/03/31 04:34:04;;;;;;;22.60;15.25;;;;;;;2.57;77.24;96920.78;5091943;28;20031;-70
2022/03/31 04:36:30;;;;;;;19.80;15.00;;;;;;;2.58;77.34;96914.28;5091421;28;20603;-69
2022/03/31 04:38:55;;;;;;;18.90;13.25;;;;;;;2.63;77.33;96914.22;5091051;28;20116;-69
2022/03/31 04:41:21;;;;;;;16.27;12.30;;;;;;;2.67;77.08;96923.41;5091271;28;20032;-69
2022/03/31 04:43:47;;;;;;;15.00;12.70;;;;;;;2.69;76.63;96921.22;5091676;28;20149;-69
2022/03/31 04:46:12;;;;;;;15.38;12.00;;;;;;;2.69;76.95;96926.66;5090758;28;20035;-68
2022/03/31 04:48:39;;;;;;;13.88;11.25;;;;;;;2.76;77.60;96937.13;5089712;28;20028;-69
2022/03/31 04:51:05;;;;;;;18.35;14.35;;;;;;;2.77;76.93;96934.16;5088920;28;20035;-69
2022/03/31 04:53:30;;;;;;;15.23;12.48;;;;;;;2.78;77.30;96932.25;5090798;28;20020;-69
2022/03/31 04:55:56;;;;;;;19.77;14.73;;;;;;;2.77;77.18;96927.94;5090711;28;20489;-69
2022/03/31 04:58:21;;;;;;;20.08;13.93;;;;;;;2.71;76.98;96924.47;5089446;28;20347;-69
2022/03/31 05:00:47;;;;;;;17.90;13.88;;;;;;;2.72;77.11;96926.09;5090792;28;20019;-69
2022/03/31 05:03:12;;;;;;;19.60;14.43;;;;;;;2.73;77.22;96922.28;5084901;28;20102;-70
2022/03/31 05:05:37;;;;;;;21.58;16.13;;;;;;;2.72;77.17;96927.97;5090138;28;20020;-69
2022/03/31 05:08:03;;;;;;;27.83;18.75;;;;;;;2.67;77.07;96935.03;5091311;28;20024;-69
2022/03/31 05:10:28;;;;;;;50.47;26.50;;;;;;;2.69;77.19;96932.06;5091280;28;20051;-69
2022/03/31 05:12:54;;;;;;;58.30;26.83;;;;;;;2.73;77.25;96933.13;5091523;28;20033;-68
2022/03/31 05:15:19;;;;;;;178.88;64.60;;;;;;;2.71;76.59;96938.00;5090514;28;20029;-69
2022/03/31 05:17:45;;;;;;;100.90;42.20;;;;;;;2.71;76.91;96943.41;5088047;28;20039;-69
2022/03/31 05:20:12;;;;;;;171.77;66.68;;;;;;;2.70;76.92;96946.38;5090093;28;20020;-70
2022/03/31 05:22:39;;;;;;;46.42;24.50;;;;;;;2.70;76.83;96951.81;5088971;28;20020;-69
2022/03/31 05:25:07;;;;;;;49.60;25.83;;;;;;;2.73;76.56;96959.38;5088955;28;20035;-69
2022/03/31 05:27:34;;;;;;;30.45;18.55;;;;;;;2.76;76.60;96961.50;5088939;28;20062;-69
2022/03/31 05:29:59;;;;;;;53.28;28.98;;;;;;;2.75;76.68;96968.00;5089523;28;20028;-69
2022/03/31 05:32:25;;;;;;;30.50;18.65;;;;;;;2.76;76.57;96972.34;5091659;28;20536;-69
2022/03/31 05:34:51;;;;;;;65.15;37.58;;;;;;;2.76;76.82;96969.63;5093875;28;20406;-69
2022/03/31 05:37:17;;;;;;;28.50;19.40;;;;;;;2.74;76.26;96969.09;5093264;28;20075;-69
2022/03/31 05:39:42;;;;;;;26.17;20.27;;;;;;;2.72;76.73;96968.56;5094388;28;20024;-69
2022/03/31 05:42:09;;;;;;;22.13;18.38;;;;;;;2.73;76.30;96964.78;5093771;28;20446;-69
2022/03/31 05:44:34;;;;;;;26.15;17.92;;;;;;;2.77;77.18;96969.38;5094557;28;20015;-69
2022/03/31 05:47:00;;;;;;;20.67;15.57;;;;;;;2.75;76.39;96960.72;5095996;28;20073;-69
2022/03/31 05:49:25;;;;;;;19.10;13.93;;;;;;;2.76;76.63;96958.78;5095425;28;20042;-69
2022/03/31 05:51:50;;;;;;;20.17;15.75;;;;;;;2.69;76.57;96959.13;5094094;28;20108;-68
2022/03/31 05:54:16;;;;;;;23.27;16.63;;;;;;;2.65;76.54;96966.19;5094274;28;20039;-69
2022/03/31 05:56:43;;;;;;;22.58;15.60;;;;;;;2.65;76.24;96968.91;5094487;28;20028;-69
2022/03/31 05:59:08;;;;;;;21.30;13.70;;;;;;;2.63;76.44;96971.91;5094146;28;20032;-69
2022/03/31 06:01:34;;;;;;;17.40;13.50;;;;;;;2.67;76.35;96967.50;5094304;28;20477;-68
2022/03/31 06:03:59;;;;;;;19.38;13.68;;;;;;;2.71;76.64;96964.25;5094048;28;20064;-68
2022/03/31 06:06:25;;;;;;;20.75;14.93;;;;;;;2.74;76.22;96963.69;5094443;28;20063;-69
2022/03/31 06:08:50;;;;;;;18.25;14.43;;;;;;;2.70;76.66;96962.63;5094008;28;20039;-67
2022/03/31 06:11:16;;;;;;;17.77;12.68;;;;;;;2.65;76.69;96961.56;5094416;28;20521;-67
2022/03/31 06:13:41;;;;;;;16.73;12.40;;;;;;;2.66;76.60;96967.81;5092638;28;20028;-67
2022/03/31 06:16:07;;;;;;;17.85;13.25;;;;;;;2.64;76.12;96965.41;5094044;28;20038;-66
2022/03/31 06:18:32;;;;;;;14.50;11.57;;;;;;;2.68;76.75;96962.94;5092442;28;20028;-67
2022/03/31 06:20:58;;;;;;;17.60;12.18;;;;;;;2.67;76.82;96962.09;5093943;28;20028;-66
2022/03/31 06:23:25;;;;;;;18.67;14.07;;;;;;;2.69;76.96;96964.53;5093912;28;20032;-66
2022/03/31 06:25:52;;;;;;;16.17;13.00;;;;;;;2.63;76.56;96962.97;5093823;28;20044;-67
2022/03/31 06:28:18;;;;;;;17.33;12.70;;;;;;;2.57;76.27;96964.06;5093779;28;20031;-66
2022/03/31 06:30:46;;;;;;;17.98;13.82;;;;;;;2.52;76.50;96954.91;5092667;28;20453;-66
2022/03/31 06:33:14;;;;;;;15.30;12.30;;;;;;;2.54;76.45;96951.94;5092155;28;20101;-66
2022/03/31 06:35:40;;;;;;;15.10;12.52;;;;;;;2.55;76.51;96961.66;5092625;28;20111;-67
2022/03/31 06:38:05;;;;;;;15.63;12.48;;;;;;;2.60;77.36;96956.22;5090531;28;20024;-66
2022/03/31 06:40:36;;;;;;;19.42;14.13;;;;;;;2.63;76.95;96957.53;5091393;28;20477;-66
2022/03/31 06:43:01;;;;;;;17.48;13.18;;;;;;;2.66;77.08;96959.69;5092141;28;20533;-66
2022/03/31 06:45:26;;;;;;;16.60;12.70;;;;;;;2.72;76.72;96966.69;5091114;28;20080;-66
2022/03/31 06:47:52;;;;;;;16.67;12.85;;;;;;;2.77;77.20;96969.38;5091768;28;20023;-66
2022/03/31 06:50:17;;;;;;;19.63;14.27;;;;;;;2.77;76.54;96965.84;5091923;28;20393;-65
2022/03/31 06:52:43;;;;;;;18.08;13.23;;;;;;;2.72;76.51;96965.88;5091066;28;20433;-66
2022/03/31 06:55:08;;;;;;;15.02;12.27;;;;;;;2.70;76.96;96970.75;5090821;28;20028;-66
2022/03/31 06:57:34;;;;;;;16.50;12.50;;;;;;;2.74;77.13;96966.41;5092390;28;20020;-67
2022/03/31 07:00:00;;;;;;;15.88;12.13;;;;;;;2.72;76.92;96968.56;5092737;28;20059;-66
2022/03/31 07:02:25;;;;;;;17.08;13.40;;;;;;;2.72;76.47;96969.41;5092565;28;20032;-66
2022/03/31 07:04:50;;;;;;;16.95;12.82;;;;;;;2.69;76.45;96967.25;5091868;28;20097;-65
2022/03/31 07:07:16;;;;;;;16.98;13.77;;;;;;;2.64;76.35;96978.09;5093774;28;20043;-66
2022/03/31 07:09:41;;;;;;;17.88;13.60;;;;;;;2.68;76.86;96966.44;5092067;28;20157;-66
2022/03/31 07:12:07;;;;;;;17.45;13.93;;;;;;;2.78;76.83;96972.88;5092458;28;20099;-67
2022/03/31 07:14:36;;;;;;;22.23;15.95;;;;;;;2.78;76.46;96970.16;5092719;28;20113;-66
2022/03/31 07:17:02;;;;;;;15.85;13.00;;;;;;;2.76;77.12;96972.34;5092184;28;20035;-66
2022/03/31 07:19:27;;;;;;;17.60;13.65;;;;;;;2.76;76.16;96975.88;5091959;28;20028;-66
2022/03/31 07:21:52;;;;;;;17.83;13.93;;;;;;;2.83;76.88;96976.38;5092034;28;20495;-66
2022/03/31 07:24:18;;;;;;;20.65;15.45;;;;;;;2.87;76.23;96982.00;5091891;28;20016;-66
2022/03/31 07:26:43;;;;;;;23.20;16.30;;;;;;;2.94;77.00;96978.97;5091489;28;20036;-66
2022/03/31 07:29:09;;;;;;;18.48;14.63;;;;;;;2.98;76.46;96980.03;5090753;28;20032;-66
2022/03/31 07:31:34;;;;;;;19.30;14.90;;;;;;;3.05;76.41;96988.63;5091895;28;20379;-66
2022/03/31 07:34:00;;;;;;;22.92;17.13;;;;;;;3.07;76.82;96988.34;5092005;28;20103;-67
2022/03/31 07:36:26;;;;;;;23.95;16.63;;;;;;;3.01;76.31;96979.47;5091715;28;20610;-66
2022/03/31 07:38:51;;;;;;;20.33;16.00;;;;;;;2.96;76.33;96980.31;5091423;28;20309;-65
2022/03/31 07:41:17;;;;;;;22.60;16.83;;;;;;;2.94;76.91;96978.97;5090890;28;20028;-66
2022/03/31 07:43:43;;;;;;;23.60;16.65;;;;;;;2.93;77.02;96975.47;5089913;28;20020;-66
2022/03/31 07:46:10;;;;;;;26.42;18.83;;;;;;;2.92;76.95;96981.97;5090900;28;20032;-66
2022/03/31 07:48:35;;;;;;;40.88;24.67;;;;;;;2.93;76.91;96988.19;5090614;28;20503;-65
2022/03/31 07:51:02;;;;;;;50.55;27.42;;;;;;;2.96;76.57;96985.75;5091345;28;20107;-66
2022/03/31 07:53:33;;;;;;;54.60;30.13;;;;;;;3.01;76.34;96981.38;5090724;28;20031;-66
2022/03/31 07:55:59;;;;;;;32.03;21.55;;;;;;;3.04;76.67;96989.72;5090703;28;20020;-66
2022/03/31 07:58:25;;;;;;;89.47;39.00;;;;;;;3.02;76.56;96983.00;5089586;28;20059;-67
2022/03/31 08:00:52;;;;;;;174.27;70.38;;;;;;;3.02;77.31;96985.69;5087746;28;20063;-65
2022/03/31 08:03:18;;;;;;;103.32;39.67;;;;;;;3.06;76.61;96992.13;5089682;28;20032;-65
2022/03/31 08:05:45;;;;;;;232.70;78.07;;;;;;;3.06;77.18;96984.00;5091034;28;20027;-65
2022/03/31 08:08:10;;;;;;;232.10;81.95;;;;;;;3.09;77.17;96995.09;5093825;28;20120;-65
2022/03/31 08:10:36;;;;;;;112.40;41.58;;;;;;;3.12;76.82;97001.84;5082835;28;20028;-65
2022/03/31 08:13:01;;;;;;;101.50;37.80;;;;;;;3.15;76.65;97004.00;5086112;28;20054;-65
2022/03/31 08:15:27;;;;;;;31.05;19.50;;;;;;;3.19;76.91;96999.63;5091650;28;20024;-66
2022/03/31 08:17:53;;;;;;;64.22;28.95;;;;;;;3.22;77.22;97000.97;5094330;28;20027;-64
2022/03/31 08:20:19;;;;;;;100.80;38.95;;;;;;;3.28;76.71;97006.06;5085550;28;20028;-64
2022/03/31 08:22:45;;;;;;;36.83;20.88;;;;;;;3.32;77.01;97006.28;5090137;28;20056;-67
2022/03/31 08:25:12;;;;;;;30.63;19.23;;;;;;;3.30;76.80;96997.63;5086612;28;20067;-65
2022/03/31 08:27:38;;;;;;;44.17;24.13;;;;;;;3.27;77.15;97004.44;5090621;28;20028;-66
2022/03/31 08:30:06;;;;;;;47.20;27.40;;;;;;;3.32;76.26;97002.78;5090998;28;20028;-66
2022/03/31 08:32:35;;;;;;;59.95;37.22;;;;;;;3.35;76.50;96994.88;5088392;28;20457;-67
2022/03/31 08:35:03;;;;;;;39.75;28.25;;;;;;;3.41;77.16;96995.66;5088483;28;20020;-67
2022/03/31 08:37:29;;;;;;;23.63;17.95;;;;;;;3.44;76.63;97003.22;5088984;28;20115;-66
2022/03/31 08:39:55;;;;;;;23.38;16.17;;;;;;;3.51;77.01;97000.97;5087924;28;20027;-66
2022/03/31 08:42:20;;;;;;;19.65;15.30;;;;;;;3.54;76.68;97007.72;5088372;28;20544;-64
2022/03/31 08:44:50;;;;;;;21.42;16.45;;;;;;;3.50;76.76;97003.97;5088599;28;20437;-65
2022/03/31 08:47:17;;;;;;;24.13;18.05;;;;;;;3.52;76.22;97013.41;5090038;28;20032;-65
2022/03/31 08:49:44;;;;;;;26.25;19.30;;;;;;;3.57;76.67;97007.16;5087228;28;20691;-65
2022/03/31 08:52:10;;;;;;;24.70;17.55;;;;;;;3.61;76.87;97008.19;5089606;28;20082;-65
2022/03/31 08:54:36;;;;;;;26.85;18.25;;;;;;;3.61;77.27;97010.09;5093230;28;20069;-65
2022/03/31 08:57:02;;;;;;;20.90;16.65;;;;;;;3.65;76.69;97008.41;5089761;28;20028;-66
2022/03/31 08:59:27;;;;;;;22.45;16.42;;;;;;;3.65;76.11;97011.13;5087427;28;20051;-66
2022/03/31 09:01:53;;;;;;;25.80;18.50;;;;;;;3.63;76.26;97019.56;5089491;28;20028;-65
2022/03/31 09:04:22;;;;;;;24.50;18.98;;;;;;;3.67;76.25;97017.09;5088350;28;20085;-65
2022/03/31 09:06:59;;;;;;;21.85;15.73;;;;;;;3.70;76.47;97024.66;5087641;28;20456;-64
2022/03/31 09:09:25;;;;;;;20.73;16.27;;;;;;;3.70;76.82;97027.34;5090121;28;20496;-66
2022/03/31 09:11:50;;;;;;;27.83;18.85;;;;;;;3.73;76.49;97021.34;5090148;28;20028;-65
2022/03/31 09:14:16;;;;;;;29.17;20.65;;;;;;;3.77;76.74;97018.88;5089125;28;20036;-65
2022/03/31 09:16:43;;;;;;;21.60;16.15;;;;;;;3.81;76.75;97014.50;5084841;28;20074;-65
2022/03/31 09:19:10;;;;;;;24.02;18.15;;;;;;;3.82;76.08;97014.22;5090059;28;20495;-65
2022/03/31 09:21:50;;;;;;;27.50;20.92;;;;;;;3.84;76.62;97016.63;5089448;28;20497;-66
2022/03/31 09:24:16;;;;;;;27.10;19.52;;;;;;;3.85;75.84;97021.78;5086811;28;20130;-66
2022/03/31 09:26:46;;;;;;;33.17;22.10;;;;;;;3.80;75.86;97021.00;5089044;28;20036;-66
2022/03/31 09:29:15;;;;;;;26.05;18.05;;;;;;;3.75;75.38;97024.59;5088513;28;20040;-66
2022/03/31 09:31:41;;;;;;;19.08;15.60;;;;;;;3.77;75.54;97030.53;5089434;28;20035;-66
2022/03/31 09:34:08;;;;;;;19.80;14.60;;;;;;;3.73;75.84;97027.56;5088997;28;20032;-65
2022/03/31 09:36:34;;;;;;;19.35;15.18;;;;;;;3.68;75.52;97030.34;5088860;28;20056;-66
2022/03/31 09:39:13;;;;;;;19.92;14.82;;;;;;;3.69;76.49;97017.59;5089107;28;20055;-65
2022/03/31 09:41:40;;;;;;;25.00;17.13;;;;;;;3.70;76.25;97019.22;5088700;28;20020;-65
2022/03/31 09:44:19;;;;;;;21.08;14.57;;;;;;;3.69;75.71;97009.47;5087608;28;20488;-65
2022/03/31 09:46:46;;;;;;;21.37;16.43;;;;;;;3.71;76.23;97012.69;5092706;28;20122;-65
2022/03/31 09:49:18;;;;;;;21.50;16.33;;;;;;;3.72;75.65;97001.56;5086868;28;20035;-67
2022/03/31 09:51:49;;;;;;;24.70;17.10;;;;;;;3.72;75.53;96998.06;5093674;28;20080;-66
2022/03/31 09:54:15;;;;;;;22.50;16.42;;;;;;;3.71;76.26;96996.44;5088788;28;20528;-66
2022/03/31 09:56:41;;;;;;;21.90;16.42;;;;;;;3.71;76.00;96988.31;5089659;28;20056;-67
2022/03/31 09:59:12;;;;;;;23.73;17.27;;;;;;;3.78;76.43;96991.47;5089455;28;20103;-66
2022/03/31 10:01:39;;;;;;;21.58;17.25;;;;;;;3.82;76.13;96981.69;5088868;28;20074;-67
2022/03/31 10:04:06;;;;;;;26.98;18.00;;;;;;;3.83;76.08;96990.59;5087652;28;20469;-67
2022/03/31 10:06:37;;;;;;;26.60;17.60;;;;;;;3.88;76.55;96985.13;5087685;28;20032;-66
2022/03/31 10:09:04;;;;;;;26.83;19.13;;;;;;;3.92;75.78;96983.44;5088188;28;20032;-67
2022/03/31 10:11:32;;;;;;;24.23;17.95;;;;;;;3.97;76.50;96979.88;5088319;28;20032;-67
2022/03/31 10:14:01;;;;;;;25.45;18.25;;;;;;;3.96;75.53;96973.66;5086029;28;20033;-66
2022/03/31 10:16:36;;;;;;;30.60;20.70;;;;;;;4.00;75.57;96974.69;5085058;28;20119;-66
2022/03/31 10:19:03;;;;;;;27.08;20.40;;;;;;;3.99;76.06;96980.38;5089532;28;20445;-65
2022/03/31 10:21:30;;;;;;;27.70;19.05;;;;;;;3.96;75.84;96975.53;5093008;28;20030;-66
2022/03/31 10:26:40;;;;;;;28.10;20.10;;;;;;;3.83;75.39;96975.16;5092721;28;20116;-64
2022/03/31 10:29:14;;;;;;;29.23;20.08;;;;;;;3.85;76.22;96972.97;5092445;28;20432;-65
2022/03/31 10:31:42;;;;;;;26.40;19.75;;;;;;;3.85;75.37;96972.13;5094609;28;20024;-65
2022/03/31 10:34:08;;;;;;;28.27;20.73;;;;;;;3.85;75.97;96977.56;5092291;28;20078;-65
2022/03/31 10:36:40;;;;;;;29.40;19.80;;;;;;;3.81;75.72;96977.34;5090303;28;20036;-66
2022/03/31 10:39:19;;;;;;;28.00;20.75;;;;;;;3.75;75.83;96977.66;5093305;28;20499;-67
2022/03/31 10:41:46;;;;;;;30.08;20.50;;;;;;;3.70;75.39;96971.22;5095061;28;20039;-66
2022/03/31 10:44:12;;;;;;;30.08;21.13;;;;;;;3.69;76.18;96972.31;5092830;28;20024;-65
2022/03/31 10:46:39;;;;;;;28.70;21.52;;;;;;;3.71;76.19;96978.25;5092039;28;20039;-67
2022/03/31 10:49:12;;;;;;;33.97;22.83;;;;;;;3.65;76.31;96971.28;5093269;28;20028;-66
2022/03/31 10:51:40;;;;;;;30.27;21.10;;;;;;;3.63;75.63;96980.78;5088370;28;20031;-66
2022/03/31 10:54:12;;;;;;;28.52;20.50;;;;;;;3.65;75.82;96978.59;5092613;28;20106;-65
2022/03/31 10:56:38;;;;;;;31.77;20.58;;;;;;;3.66;75.73;96980.22;5091154;28;20024;-66
2022/03/31 10:59:06;;;;;;;29.88;20.52;;;;;;;3.61;75.76;96982.97;5092563;28;20576;-65
2022/03/31 11:01:39;;;;;;;28.63;20.40;;;;;;;3.53;76.57;96990.63;5091265;28;20021;-66
2022/03/31 11:04:07;;;;;;;33.90;22.02;;;;;;;3.55;75.99;96987.66;5093136;28;20044;-66
2022/03/31 11:06:33;;;;;;;35.40;21.80;;;;;;;3.55;76.76;96985.75;5092252;28;20107;-66
2022/03/31 11:08:59;;;;;;;42.92;27.35;;;;;;;3.51;76.79;96981.97;5092931;28;20084;-66
2022/03/31 11:11:28;;;;;;;38.38;24.02;;;;;;;3.56;76.36;96975.72;5092905;28;20445;-66
2022/03/31 11:13:55;;;;;;;54.38;35.80;;;;;;;3.56;76.90;96981.13;5092862;28;20032;-66
2022/03/31 11:16:22;;;;;;;54.38;34.78;;;;;;;3.58;76.81;96968.91;5092136;28;20118;-65
2022/03/31 11:18:57;;;;;;;42.72;27.33;;;;;;;3.65;76.48;96981.31;5092570;28;20028;-66
2022/03/31 11:21:24;;;;;;;46.75;30.13;;;;;;;3.71;76.00;96986.38;5090661;28;20028;-66
2022/03/31 11:23:50;;;;;;;35.15;23.33;;;;;;;3.71;76.33;96983.66;5091901;28;20012;-66
2022/03/31 11:26:28;;;;;;;24.58;18.25;;;;;;;3.72;76.52;96977.16;5092101;28;20056;-66